Time;durP1;ratioP1;P1;durP2;ratioP2;P2;SDS_P1;SDS_P2;PMS_P1;PMS_P2;Temp;Humidity;BMP_temperature;BMP_pressure;BME280_temperature;BME280_humidity;BME280_pressure;Samples;Min_cycle;Max_cycle;Signal;HPM_P1;HPM_P2
2023/01/31 00:01:26;;;;;;;59.05;48.63;;;12.50;64.10;;;;;;4965559;28;93632;-56
2023/01/31 00:03:58;;;;;;;59.80;47.87;;;12.60;63.80;;;;;;4976064;28;91259;-52
2023/01/31 00:06:32;;;;;;;59.10;47.97;;;12.60;63.70;;;;;;4959073;28;96357;-56
2023/01/31 00:08:59;;;;;;;56.85;47.95;;;12.60;63.50;;;;;;4978473;28;94071;-56
2023/01/31 00:11:27;;;;;;;58.38;48.35;;;12.70;63.40;;;;;;4974436;28;94491;-57
2023/01/31 00:13:53;;;;;;;57.15;48.10;;;12.70;63.40;;;;;;4969757;28;93108;-54
2023/01/31 00:16:20;;;;;;;59.08;48.20;;;12.60;63.20;;;;;;4942180;28;97217;-55
2023/01/31 00:18:46;;;;;;;58.42;48.10;;;12.60;64.00;;;;;;4970601;28;91165;-57
2023/01/31 00:21:13;;;;;;;56.85;47.95;;;12.60;63.30;;;;;;4973606;28;91426;-57
2023/01/31 00:23:39;;;;;;;57.83;48.10;;;12.60;63.30;;;;;;4979662;28;96801;-58
2023/01/31 00:26:28;;;;;;;60.58;47.85;;;12.60;63.40;;;;;;4973079;28;90903;-56
2023/01/31 00:28:55;;;;;;;58.45;47.58;;;12.60;63.20;;;;;;4963989;28;92765;-55
2023/01/31 00:31:22;;;;;;;60.05;47.95;;;12.50;63.40;;;;;;4958907;28;96059;-52
2023/01/31 00:33:49;;;;;;;57.75;47.83;;;12.60;63.50;;;;;;4969084;28;93478;-57
2023/01/31 00:36:17;;;;;;;58.10;48.35;;;12.60;63.50;;;;;;4963854;28;95808;-56
2023/01/31 00:38:46;;;;;;;60.25;47.95;;;12.60;63.30;;;;;;4972086;28;92469;-54
2023/01/31 00:41:11;;;;;;;55.55;47.45;;;12.60;63.50;;;;;;4975958;28;90223;-54
2023/01/31 00:43:37;;;;;;;56.97;47.75;;;12.60;63.30;;;;;;4948540;28;94621;-53
2023/01/31 00:46:03;;;;;;;58.78;47.63;;;12.60;63.40;;;;;;4965009;28;95935;-57
2023/01/31 00:48:29;;;;;;;57.72;48.22;;;12.60;63.40;;;;;;4979272;28;93500;-57
2023/01/31 00:50:55;;;;;;;57.00;47.88;;;12.50;63.50;;;;;;4973691;28;93856;-57
2023/01/31 00:53:22;;;;;;;60.03;48.00;;;12.50;63.40;;;;;;4974213;28;92692;-57
2023/01/31 00:55:50;;;;;;;57.40;47.65;;;12.50;63.60;;;;;;4979014;28;93920;-52
2023/01/31 00:58:16;;;;;;;57.63;48.13;;;12.50;63.70;;;;;;4960974;28;97723;-54
2023/01/31 01:00:41;;;;;;;57.15;48.03;;;12.40;63.60;;;;;;4961675;28;93254;-55
2023/01/31 01:03:07;;;;;;;57.03;47.85;;;12.40;63.70;;;;;;4972182;28;90239;-54
2023/01/31 01:05:32;;;;;;;58.08;48.17;;;12.40;63.80;;;;;;4967100;28;93049;-55
2023/01/31 01:07:58;;;;;;;58.85;47.97;;;12.40;63.80;;;;;;4962817;28;94249;-57
2023/01/31 01:10:24;;;;;;;57.70;48.63;;;12.40;63.80;;;;;;4976414;28;94639;-53
2023/01/31 01:12:49;;;;;;;55.80;47.83;;;12.40;64.00;;;;;;4971501;28;93827;-54
2023/01/31 01:15:15;;;;;;;56.55;47.65;;;12.40;63.70;;;;;;4962185;28;96761;-53
2023/01/31 01:17:41;;;;;;;56.70;47.70;;;12.40;63.80;;;;;;4991095;28;94764;-56
2023/01/31 01:20:07;;;;;;;58.90;48.15;;;12.40;63.80;;;;;;4981568;28;93962;-57
2023/01/31 01:22:33;;;;;;;56.20;47.70;;;12.30;64.00;;;;;;4978292;28;90208;-57
2023/01/31 01:24:59;;;;;;;56.75;47.38;;;12.30;64.10;;;;;;4977448;28;90030;-52
2023/01/31 01:27:26;;;;;;;58.58;48.17;;;12.30;64.20;;;;;;4981782;28;91038;-56
2023/01/31 01:29:52;;;;;;;57.45;47.97;;;12.30;64.30;;;;;;4969046;28;93869;-56
2023/01/31 01:32:18;;;;;;;56.85;47.85;;;12.30;64.20;;;;;;4984671;28;91813;-56
2023/01/31 01:34:43;;;;;;;56.13;47.63;;;12.30;64.20;;;;;;4962902;28;93486;-56
2023/01/31 01:37:10;;;;;;;57.80;47.97;;;12.20;64.10;;;;;;4967094;28;95574;-55
2023/01/31 01:39:39;;;;;;;56.67;47.50;;;12.20;64.30;;;;;;4977329;28;91070;-57
2023/01/31 01:42:07;;;;;;;56.45;47.75;;;12.20;64.20;;;;;;4960259;28;93929;-57
2023/01/31 01:44:46;;;;;;;57.90;47.58;;;12.20;64.20;;;;;;4961015;28;90302;-57
2023/01/31 01:47:26;;;;;;;60.85;47.70;;;12.20;64.30;;;;;;4961749;28;91834;-49
2023/01/31 01:50:12;;;;;;;58.20;47.80;;;12.20;64.40;;;;;;4970203;28;94400;-54
2023/01/31 01:52:44;;;;;;;54.97;47.38;;;12.20;64.40;;;;;;4961107;28;90630;-55
2023/01/31 01:55:22;;;;;;;56.58;47.80;;;12.10;64.50;;;;;;4976010;28;89693;-56
2023/01/31 01:57:53;;;;;;;60.30;48.53;;;12.10;64.40;;;;;;4975813;28;91057;-55
2023/01/31 02:00:24;;;;;;;59.78;48.17;;;12.20;64.60;;;;;;4963028;28;93428;-57
2023/01/31 02:02:54;;;;;;;57.17;47.72;;;12.10;64.50;;;;;;4975658;28;90611;-52
2023/01/31 02:05:24;;;;;;;59.03;48.20;;;12.00;64.50;;;;;;4969142;28;93241;-58
2023/01/31 02:07:50;;;;;;;56.47;48.33;;;12.10;64.50;;;;;;4966319;28;97575;-57
2023/01/31 02:10:46;;;;;;;57.42;48.22;;;12.00;64.40;;;;;;4959959;28;92280;-56
2023/01/31 02:13:12;;;;;;;57.80;47.63;;;12.10;65.30;;;;;;4945607;28;94866;-56
2023/01/31 02:15:38;;;;;;;58.55;47.90;;;12.10;64.40;;;;;;4979694;28;89834;-52
2023/01/31 02:18:05;;;;;;;58.88;47.95;;;12.30;64.00;;;;;;4977314;28;98189;-57
2023/01/31 02:20:47;;;;;;;57.38;48.05;;;12.40;63.20;;;;;;4976794;28;92310;-56
2023/01/31 02:23:44;;;;;;;57.88;47.58;;;12.50;63.10;;;;;;4959985;28;96731;-55
2023/01/31 02:26:12;;;;;;;54.85;47.45;;;12.50;62.80;;;;;;4951472;28;89920;-55
2023/01/31 02:28:58;;;;;;;57.13;47.67;;;12.60;62.50;;;;;;4979104;28;90467;-53
2023/01/31 02:31:45;;;;;;;57.97;47.60;;;12.60;62.20;;;;;;4970413;28;90119;-58
2023/01/31 02:34:36;;;;;;;55.40;47.08;;;12.60;62.10;;;;;;4974763;28;90689;-56
2023/01/31 02:37:12;;;;;;;58.17;47.05;;;12.70;62.20;;;;;;4972217;28;90239;-54
2023/01/31 02:39:48;;;;;;;58.47;47.67;;;12.60;62.00;;;;;;4960162;28;92246;-57
2023/01/31 02:42:39;;;;;;;55.03;47.33;;;12.70;62.00;;;;;;4974907;28;93117;-58
2023/01/31 02:45:12;;;;;;;55.80;47.37;;;12.70;62.00;;;;;;4967711;28;95254;-53
2023/01/31 02:48:07;;;;;;;55.03;47.10;;;12.70;62.00;;;;;;4967451;28;94501;-56
2023/01/31 02:50:44;;;;;;;56.03;47.63;;;12.60;61.90;;;;;;4927461;28;92114;-52
2023/01/31 02:53:15;;;;;;;56.30;47.05;;;12.60;62.30;;;;;;4953887;28;90798;-55
2023/01/31 02:56:14;;;;;;;58.65;47.33;;;12.60;62.30;;;;;;4967697;28;92922;-58
2023/01/31 02:58:44;;;;;;;54.60;46.58;;;12.60;62.30;;;;;;4961831;28;90426;-56
2023/01/31 03:01:15;;;;;;;57.10;47.97;;;12.60;62.30;;;;;;4958901;28;92948;-50
2023/01/31 03:03:41;;;;;;;55.73;47.60;;;12.50;62.30;;;;;;4985574;28;95465;-55
2023/01/31 03:06:25;;;;;;;56.00;47.20;;;12.50;62.40;;;;;;4949536;28;92268;-57
2023/01/31 03:09:01;;;;;;;56.20;46.95;;;12.50;62.50;;;;;;4973979;28;91868;-55
2023/01/31 03:11:38;;;;;;;56.17;47.05;;;12.50;62.50;;;;;;4964605;28;92464;-58
2023/01/31 03:14:07;;;;;;;55.05;47.05;;;12.50;62.50;;;;;;4964304;28;93247;-56
2023/01/31 03:19:37;;;;;;;55.08;46.70;;;12.50;62.40;;;;;;4981236;28;90495;-56
2023/01/31 03:22:09;;;;;;;56.15;46.83;;;12.50;62.50;;;;;;4968263;28;94005;-57
2023/01/31 03:24:35;;;;;;;56.08;47.13;;;12.50;62.40;;;;;;4986171;28;90076;-57
2023/01/31 03:27:01;;;;;;;55.10;46.97;;;12.50;62.40;;;;;;4969775;28;93431;-57
2023/01/31 03:29:33;;;;;;;56.42;47.20;;;12.40;62.50;;;;;;4960263;28;92421;-55
2023/01/31 03:32:17;;;;;;;;;;;12.50;62.40;;;;;;4959774;28;91625;-49
2023/01/31 03:34:43;;;;;;;56.88;46.70;;;12.40;62.40;;;;;;4976989;28;91976;-56
2023/01/31 03:37:23;;;;;;;57.20;47.08;;;12.40;62.30;;;;;;4977863;28;90768;-57
2023/01/31 03:40:16;;;;;;;54.72;47.20;;;12.40;62.40;;;;;;4953488;28;91933;-57
2023/01/31 03:43:05;;;;;;;56.47;47.28;;;12.40;62.40;;;;;;4962290;28;95432;-54
2023/01/31 03:45:37;;;;;;;54.47;46.40;;;12.50;62.30;;;;;;4960383;28;92535;-54
2023/01/31 03:48:09;;;;;;;56.78;46.95;;;12.40;62.30;;;;;;4955899;28;93276;-55
2023/01/31 03:50:47;;;;;;;56.55;47.30;;;12.40;62.40;;;;;;4972254;28;94421;-57
2023/01/31 03:53:26;;;;;;;57.05;47.08;;;12.40;62.60;;;;;;4969136;28;91360;-55
2023/01/31 03:56:28;;;;;;;57.40;46.53;;;12.40;62.50;;;;;;4977954;28;91149;-57
2023/01/31 03:59:03;;;;;;;53.35;46.85;;;12.30;62.70;;;;;;4954529;28;96241;-55
2023/01/31 04:01:33;;;;;;;54.63;46.85;;;12.30;62.70;;;;;;4971561;28;91248;-51
2023/01/31 04:04:20;;;;;;;56.00;46.97;;;12.30;62.70;;;;;;4960169;28;92765;-54
2023/01/31 04:06:46;;;;;;;56.63;46.80;;;12.30;62.60;;;;;;4971482;28;94515;-53
2023/01/31 04:09:12;;;;;;;54.58;46.72;;;12.30;62.60;;;;;;4975935;28;96564;-56
2023/01/31 04:11:40;;;;;;;57.55;47.05;;;12.30;62.80;;;;;;4971397;28;91883;-51
2023/01/31 04:14:07;;;;;;;55.75;47.13;;;12.30;62.80;;;;;;4961726;28;94718;-50
2023/01/31 04:16:33;;;;;;;57.58;46.95;;;12.30;62.70;;;;;;4944459;28;93144;-53
2023/01/31 04:18:59;;;;;;;55.38;47.08;;;12.30;62.50;;;;;;4955535;28;97177;-54
2023/01/31 04:21:24;;;;;;;57.35;47.45;;;12.30;62.70;;;;;;4978799;28;93351;-55
2023/01/31 04:23:50;;;;;;;57.63;46.92;;;12.30;62.60;;;;;;4972228;28;92090;-56
2023/01/31 04:26:16;;;;;;;57.05;47.13;;;12.50;62.20;;;;;;4966398;28;90161;-53
2023/01/31 04:28:41;;;;;;;56.10;47.28;;;12.70;61.20;;;;;;4949697;28;91333;-54
2023/01/31 04:31:07;;;;;;;57.97;46.83;;;12.70;61.30;;;;;;4975245;28;92927;-56
2023/01/31 04:33:33;;;;;;;55.20;46.85;;;12.70;61.50;;;;;;4974099;28;93873;-57
2023/01/31 04:35:58;;;;;;;57.03;46.90;;;12.50;62.00;;;;;;4967932;28;91553;-56
2023/01/31 04:38:24;;;;;;;55.88;46.75;;;12.30;62.50;;;;;;4962968;28;92037;-55
2023/01/31 04:40:50;;;;;;;55.40;47.25;;;12.30;62.90;;;;;;4987448;28;90477;-56
2023/01/31 04:43:16;;;;;;;56.20;47.05;;;12.30;62.90;;;;;;4976345;28;93722;-56
2023/01/31 04:45:41;;;;;;;54.97;46.63;;;12.30;63.10;;;;;;4964776;28;92476;-51
2023/01/31 04:48:07;;;;;;;55.47;46.83;;;12.20;63.10;;;;;;4986771;28;90054;-55
2023/01/31 04:50:33;;;;;;;56.80;47.05;;;12.20;63.20;;;;;;4979015;28;89983;-55
2023/01/31 04:52:59;;;;;;;56.63;46.72;;;12.20;63.20;;;;;;4950762;28;94944;-56
2023/01/31 04:55:26;;;;;;;53.83;46.63;;;12.30;63.20;;;;;;4974846;28;92245;-56
2023/01/31 04:57:52;;;;;;;53.90;46.63;;;12.20;63.10;;;;;;4975530;28;94235;-56
2023/01/31 05:00:18;;;;;;;54.25;46.58;;;12.20;63.00;;;;;;4955823;28;89201;-55
2023/01/31 05:02:44;;;;;;;54.03;47.08;;;12.20;63.20;;;;;;4981442;28;93240;-49
2023/01/31 05:05:11;;;;;;;55.50;47.10;;;12.20;63.20;;;;;;4977848;28;92155;-54
2023/01/31 05:07:38;;;;;;;54.05;46.47;;;12.20;63.30;;;;;;4965316;28;94394;-54
2023/01/31 05:10:04;;;;;;;55.25;46.90;;;12.20;63.30;;;;;;4969191;28;95540;-55
2023/01/31 05:12:30;;;;;;;56.00;46.80;;;12.20;63.10;;;;;;4976975;28;92461;-56
2023/01/31 05:14:55;;;;;;;54.20;46.83;;;12.20;64.00;;;;;;4956508;28;91369;-52
2023/01/31 05:17:28;;;;;;;53.85;46.47;;;12.20;63.20;;;;;;4987474;28;96957;-55
2023/01/31 05:19:55;;;;;;;52.90;46.55;;;12.20;63.10;;;;;;4961379;28;90915;-54
2023/01/31 05:22:21;;;;;;;54.60;46.63;;;12.20;63.20;;;;;;4973890;28;101170;-50
2023/01/31 05:24:48;;;;;;;57.08;46.55;;;12.20;63.10;;;;;;4973365;28;89902;-56
2023/01/31 05:27:14;;;;;;;55.05;46.88;;;12.20;63.00;;;;;;4949689;28;90015;-53
2023/01/31 05:29:39;;;;;;;55.72;46.83;;;12.30;62.90;;;;;;4943604;28;91658;-56
2023/01/31 05:32:05;;;;;;;57.75;46.25;;;12.40;62.80;;;;;;4972679;28;94171;-52
2023/01/31 05:34:32;;;;;;;53.83;46.60;;;12.40;62.70;;;;;;4972081;28;93891;-54
2023/01/31 05:36:58;;;;;;;55.15;46.67;;;12.30;62.60;;;;;;4971235;28;91292;-55
2023/01/31 05:39:24;;;;;;;57.78;47.05;;;12.40;62.80;;;;;;4962644;28;94985;-56
2023/01/31 05:41:51;;;;;;;57.38;47.30;;;12.40;62.50;;;;;;4955665;28;97855;-56
2023/01/31 05:44:17;;;;;;;54.92;46.72;;;12.50;62.00;;;;;;4977909;28;94046;-54
2023/01/31 05:46:43;;;;;;;55.53;46.60;;;12.60;61.60;;;;;;4958266;28;93774;-55
2023/01/31 05:49:09;;;;;;;53.22;46.13;;;12.60;61.40;;;;;;4975719;28;89292;-56
2023/01/31 05:51:35;;;;;;;55.30;46.75;;;12.70;61.20;;;;;;4973330;28;91102;-50
2023/01/31 05:54:01;;;;;;;54.95;46.25;;;12.60;61.10;;;;;;4967717;28;93141;-55
2023/01/31 05:56:27;;;;;;;53.78;46.08;;;12.70;61.10;;;;;;4975214;28;91514;-54
2023/01/31 05:58:52;;;;;;;55.03;46.20;;;12.70;61.00;;;;;;4972531;28;91736;-56
2023/01/31 06:01:24;;;;;;;55.83;46.85;;;12.70;61.00;;;;;;4979828;28;93005;-54
2023/01/31 06:03:50;;;;;;;56.88;46.53;;;12.70;61.00;;;;;;4964915;28;92528;-54
2023/01/31 06:06:16;;;;;;;55.78;46.53;;;12.70;61.10;;;;;;4970608;28;95303;-55
2023/01/31 06:08:42;;;;;;;56.17;46.35;;;12.80;60.80;;;;;;4968325;28;95856;-54
2023/01/31 06:11:12;;;;;;;56.30;47.15;;;12.80;60.70;;;;;;4969266;28;91150;-54
2023/01/31 06:13:39;;;;;;;52.72;46.00;;;12.80;60.80;;;;;;4983166;28;90003;-55
2023/01/31 06:16:05;;;;;;;54.95;46.70;;;12.70;61.00;;;;;;4977278;28;89525;-56
2023/01/31 06:18:31;;;;;;;54.47;46.63;;;12.60;61.10;;;;;;4972113;28;90913;-54
2023/01/31 06:20:57;;;;;;;58.40;47.25;;;12.70;61.20;;;;;;4955517;28;94230;-55
2023/01/31 06:23:23;;;;;;;56.95;47.22;;;12.60;61.20;;;;;;4957955;28;93526;-55
2023/01/31 06:25:52;;;;;;;55.22;46.90;;;12.70;61.10;;;;;;4960059;28;93432;-55
2023/01/31 06:28:18;;;;;;;57.70;45.97;;;12.60;61.30;;;;;;4975054;28;91820;-51
2023/01/31 06:30:45;;;;;;;55.03;46.50;;;12.70;61.30;;;;;;4959431;28;95265;-54
2023/01/31 06:33:11;;;;;;;54.58;46.95;;;12.70;61.50;;;;;;4967163;28;97261;-47
2023/01/31 06:35:38;;;;;;;53.65;46.40;;;12.60;61.50;;;;;;4961459;28;92124;-51
2023/01/31 06:38:04;;;;;;;54.38;46.22;;;12.60;61.50;;;;;;4947896;28;93220;-52
2023/01/31 06:40:30;;;;;;;55.97;46.90;;;12.60;61.60;;;;;;4957755;28;91670;-54
2023/01/31 06:42:57;;;;;;;57.08;46.63;;;12.60;61.60;;;;;;4957848;28;91677;-53
2023/01/31 06:45:22;;;;;;;55.05;46.58;;;12.60;61.50;;;;;;4959375;28;93179;-53
2023/01/31 06:47:48;;;;;;;55.15;46.63;;;12.70;61.50;;;;;;4965371;28;92894;-55
2023/01/31 06:50:14;;;;;;;59.92;46.38;;;12.70;61.90;;;;;;4990711;28;89953;-56
2023/01/31 06:52:40;;;;;;;55.42;46.55;;;12.60;61.90;;;;;;4969381;28;92034;-51
2023/01/31 06:55:06;;;;;;;56.03;46.67;;;12.60;61.90;;;;;;4977210;28;91306;-55
2023/01/31 06:57:32;;;;;;;55.92;46.63;;;12.60;61.80;;;;;;4982975;28;90903;-54
2023/01/31 06:59:58;;;;;;;53.58;46.63;;;12.60;61.80;;;;;;4951141;28;96342;-54
2023/01/31 07:02:23;;;;;;;55.55;46.40;;;12.70;61.80;;;;;;4975126;28;90927;-54
2023/01/31 07:04:50;;;;;;;55.08;46.40;;;12.70;61.70;;;;;;4964256;28;93705;-55
2023/01/31 07:07:15;;;;;;;55.80;46.80;;;12.70;61.60;;;;;;4970922;28;92050;-53
2023/01/31 07:09:41;;;;;;;56.50;46.55;;;12.60;61.70;;;;;;4984027;28;91436;-54
2023/01/31 07:12:07;;;;;;;53.78;46.63;;;12.70;61.50;;;;;;4973504;28;91791;-54
2023/01/31 07:14:33;;;;;;;54.47;46.40;;;12.70;61.60;;;;;;4974539;28;91825;-55
2023/01/31 07:16:58;;;;;;;56.08;47.13;;;12.70;61.60;;;;;;4974728;28;95951;-54
2023/01/31 07:19:24;;;;;;;54.55;46.55;;;12.60;61.80;;;;;;4947812;28;92584;-54
2023/01/31 07:21:49;;;;;;;54.55;46.35;;;12.60;61.70;;;;;;4955705;28;91285;-55
2023/01/31 07:24:15;;;;;;;53.17;46.45;;;12.60;61.50;;;;;;4964042;28;93406;-51
2023/01/31 07:26:41;;;;;;;58.00;46.88;;;12.60;61.30;;;;;;4967393;28;90470;-56
2023/01/31 07:29:07;;;;;;;57.15;47.10;;;12.60;61.30;;;;;;4980094;28;91665;-55
2023/01/31 07:31:33;;;;;;;56.08;46.55;;;12.60;62.20;;;;;;4966909;28;91746;-52
2023/01/31 07:33:59;;;;;;;55.45;46.33;;;12.50;61.60;;;;;;4964331;28;93444;-54
2023/01/31 07:36:25;;;;;;;54.85;46.50;;;12.50;61.80;;;;;;4963869;28;93500;-55
2023/01/31 07:38:56;;;;;;;53.60;47.10;;;12.50;61.70;;;;;;4960674;28;92806;-56
2023/01/31 07:41:23;;;;;;;58.42;47.95;;;12.50;61.60;;;;;;4961338;28;95656;-55
2023/01/31 07:43:49;;;;;;;57.58;47.60;;;12.50;61.50;;;;;;4967143;28;96287;-55
2023/01/31 07:46:15;;;;;;;58.63;48.50;;;12.50;61.30;;;;;;4974212;28;92182;-48
2023/01/31 07:48:41;;;;;;;55.95;48.08;;;12.50;61.30;;;;;;4963529;28;96452;-53
2023/01/31 07:51:07;;;;;;;58.40;48.33;;;12.50;61.00;;;;;;4958779;28;96051;-51
2023/01/31 07:53:40;;;;;;;55.50;48.45;;;12.50;61.40;;;;;;4964853;28;99505;-43
2023/01/31 07:56:12;;;;;;;60.80;50.30;;;12.50;61.50;;;;;;4970350;28;90730;-56
2023/01/31 07:58:39;;;;;;;60.28;49.67;;;12.40;62.90;;;;;;4976113;28;94807;-58
2023/01/31 08:03:49;;;;;;;65.68;52.80;;;12.60;63.60;;;;;;4956541;28;91905;-57
2023/01/31 08:06:15;;;;;;;74.30;60.05;;;13.00;62.80;;;;;;4979665;28;90544;-56
2023/01/31 08:08:41;;;;;;;73.22;59.30;;;13.10;63.00;;;;;;4975162;28;92477;-57
2023/01/31 08:11:08;;;;;;;75.15;59.20;;;13.30;62.40;;;;;;4959233;28;96296;-54
2023/01/31 08:13:34;;;;;;;73.45;58.03;;;13.50;62.00;;;;;;4948935;28;91801;-51
2023/01/31 08:16:04;;;;;;;78.05;60.35;;;13.60;61.70;;;;;;4965003;28;92283;-53
2023/01/31 08:18:31;;;;;;;74.30;57.85;;;13.80;61.40;;;;;;4951779;28;95329;-55
2023/01/31 08:20:58;;;;;;;73.43;56.88;;;13.90;61.30;;;;;;4970167;28;92845;-60
2023/01/31 08:23:24;;;;;;;71.13;56.70;;;14.00;60.50;;;;;;4971611;28;94711;-59
2023/01/31 08:25:49;;;;;;;69.47;55.30;;;14.00;60.00;;;;;;4942778;28;92112;-53
2023/01/31 08:28:15;;;;;;;71.97;55.00;;;14.10;60.00;;;;;;4969113;28;90381;-65
2023/01/31 08:30:43;;;;;;;71.07;55.05;;;14.30;60.00;;;;;;4964247;28;95832;-59
2023/01/31 08:33:10;;;;;;;70.55;55.88;;;14.40;59.40;;;;;;4966659;28;93002;-51
2023/01/31 08:35:36;;;;;;;69.53;54.00;;;14.50;59.50;;;;;;4965009;28;90309;-57
2023/01/31 08:38:03;;;;;;;69.53;54.60;;;14.60;59.20;;;;;;4963164;28;90528;-56
2023/01/31 08:40:29;;;;;;;66.88;54.10;;;14.60;58.50;;;;;;4970101;28;90708;-57
2023/01/31 08:43:01;;;;;;;68.43;53.95;;;14.50;58.70;;;;;;4964254;28;95483;-57
2023/01/31 08:45:28;;;;;;;68.82;53.25;;;14.60;58.60;;;;;;4944794;28;100614;-54
2023/01/31 08:47:58;;;;;;;66.05;52.58;;;14.70;58.90;;;;;;4956893;28;96849;-57
2023/01/31 08:50:26;;;;;;;68.32;53.60;;;14.70;58.60;;;;;;4965628;28;93077;-56
2023/01/31 08:53:00;;;;;;;67.30;54.13;;;14.80;58.80;;;;;;4973895;28;96311;-52
2023/01/31 08:55:27;;;;;;;67.07;53.35;;;14.80;58.60;;;;;;4965543;28;92088;-56
2023/01/31 08:57:53;;;;;;;71.78;54.75;;;14.70;58.90;;;;;;4979650;28;91147;-58
2023/01/31 09:00:20;;;;;;;66.57;52.42;;;14.60;59.30;;;;;;4959503;28;91282;-57
2023/01/31 09:02:53;;;;;;;65.85;52.58;;;14.70;59.20;;;;;;4984403;28;92282;-55
2023/01/31 09:05:19;;;;;;;67.63;52.58;;;14.80;59.20;;;;;;4977922;28;89430;-54
2023/01/31 09:07:45;;;;;;;67.20;51.95;;;14.90;58.80;;;;;;4971885;28;91120;-57
2023/01/31 09:10:11;;;;;;;66.38;51.55;;;15.00;58.80;;;;;;4979722;28;90233;-57
2023/01/31 09:12:36;;;;;;;65.50;51.67;;;15.00;58.50;;;;;;4986893;28;90885;-57
2023/01/31 09:15:03;;;;;;;65.65;51.20;;;15.20;58.40;;;;;;4976114;28;93009;-55
2023/01/31 09:17:29;;;;;;;66.03;51.40;;;15.30;58.20;;;;;;4977790;28;93177;-57
2023/01/31 09:19:55;;;;;;;67.90;51.35;;;15.40;57.90;;;;;;4977096;28;90001;-56
2023/01/31 09:22:21;;;;;;;64.85;51.30;;;15.40;57.90;;;;;;4972136;28;90952;-57
2023/01/31 09:24:47;;;;;;;64.82;50.90;;;15.40;57.80;;;;;;4980818;28;90552;-47
2023/01/31 09:27:13;;;;;;;64.15;50.90;;;15.50;57.60;;;;;;4967591;28;91167;-56
2023/01/31 09:29:39;;;;;;;64.72;50.85;;;15.50;57.70;;;;;;4977232;28;89904;-57
2023/01/31 09:32:05;;;;;;;66.22;51.05;;;15.60;57.80;;;;;;4970017;28;95963;-56
2023/01/31 09:34:31;;;;;;;62.97;50.63;;;15.60;57.50;;;;;;4976818;28;92291;-57
2023/01/31 09:36:57;;;;;;;64.35;50.42;;;15.80;57.50;;;;;;4982727;28;93196;-53
2023/01/31 09:39:23;;;;;;;63.30;50.25;;;15.80;57.30;;;;;;4976343;28;94002;-54
2023/01/31 09:41:54;;;;;;;64.65;50.10;;;15.90;57.20;;;;;;4971879;28;90468;-56
2023/01/31 09:44:31;;;;;;;63.75;50.35;;;15.90;57.10;;;;;;4978414;28;91058;-50
2023/01/31 09:47:29;;;;;;;64.25;49.75;;;16.00;56.90;;;;;;4984316;28;91035;-57
2023/01/31 09:50:01;;;;;;;63.13;50.55;;;16.00;56.80;;;;;;4954365;28;91691;-57
2023/01/31 09:52:27;;;;;;;67.35;50.17;;;16.20;56.80;;;;;;4964060;28;90274;-57
2023/01/31 09:54:54;;;;;;;63.35;49.63;;;16.20;56.60;;;;;;4979592;28;91436;-55
2023/01/31 09:57:37;;;;;;;64.47;50.08;;;16.30;56.60;;;;;;4982930;28;91445;-57
2023/01/31 10:00:17;;;;;;;66.18;49.92;;;16.30;56.50;;;;;;4983369;28;90285;-55
2023/01/31 10:03:20;;;;;;;64.38;50.25;;;16.30;56.30;;;;;;4974514;28;94457;-57
2023/01/31 10:05:55;;;;;;;62.08;49.67;;;16.40;56.20;;;;;;4983731;28;90475;-57
2023/01/31 10:08:43;;;;;;;63.05;49.17;;;16.40;56.50;;;;;;4964536;28;91167;-57
2023/01/31 10:11:29;;;;;;;66.00;49.45;;;16.50;56.20;;;;;;4979697;28;90922;-58
2023/01/31 10:14:18;;;;;;;63.08;49.78;;;16.50;56.00;;;;;;4957988;28;90576;-57
2023/01/31 10:17:07;;;;;;;62.05;49.25;;;16.60;56.00;;;;;;4963258;28;93198;-58
2023/01/31 10:19:51;;;;;;;66.13;49.83;;;16.60;56.10;;;;;;4975280;28;91081;-57
2023/01/31 10:22:31;;;;;;;65.57;49.75;;;16.60;55.80;;;;;;4966221;28;93546;-54
2023/01/31 10:25:07;;;;;;;63.05;49.42;;;16.60;56.00;;;;;;4972719;28;93423;-58
2023/01/31 10:27:46;;;;;;;64.93;49.95;;;16.70;55.90;;;;;;4981951;28;90820;-56
2023/01/31 10:30:16;;;;;;;66.38;49.47;;;16.70;55.80;;;;;;4987041;28;91748;-56
2023/01/31 10:32:47;;;;;;;68.50;49.70;;;16.70;55.80;;;;;;4968428;28;92300;-56
2023/01/31 10:35:25;;;;;;;63.93;49.03;;;16.70;55.70;;;;;;4958863;28;90425;-55
2023/01/31 10:38:00;;;;;;;63.10;49.40;;;16.70;55.80;;;;;;4967715;28;91770;-56
2023/01/31 10:40:36;;;;;;;65.88;49.60;;;16.70;56.00;;;;;;4981375;28;91276;-57
2023/01/31 10:43:35;;;;;;;64.47;49.55;;;16.60;56.10;;;;;;4981237;28;91049;-56
2023/01/31 10:46:01;;;;;;;69.13;49.30;;;16.70;56.30;;;;;;4977361;28;96084;-54
2023/01/31 10:48:28;;;;;;;63.50;49.58;;;16.70;56.00;;;;;;4976433;28;89666;-55
2023/01/31 10:51:09;;;;;;;65.93;49.47;;;16.70;56.00;;;;;;4969960;28;91154;-58
2023/01/31 10:54:17;;;;;;;64.73;49.07;;;16.70;55.90;;;;;;4976113;28;91335;-54
2023/01/31 10:56:46;;;;;;;61.33;48.75;;;16.70;56.10;;;;;;4937891;28;91506;-57
2023/01/31 10:59:28;;;;;;;65.88;49.03;;;16.70;56.00;;;;;;4965904;28;93623;-53
2023/01/31 11:01:54;;;;;;;64.43;49.45;;;16.80;56.00;;;;;;4975510;28;91171;-53
2023/01/31 11:04:28;;;;;;;65.72;49.55;;;16.70;55.90;;;;;;4980281;28;91616;-56
2023/01/31 11:06:56;;;;;;;64.53;49.08;;;16.80;56.20;;;;;;4979773;28;91687;-53
2023/01/31 11:09:23;;;;;;;64.28;48.83;;;16.80;56.00;;;;;;4962960;28;94373;-56
2023/01/31 11:12:00;;;;;;;65.28;49.13;;;16.70;55.90;;;;;;4968264;28;91586;-56
2023/01/31 11:14:28;;;;;;;64.38;49.30;;;16.70;55.80;;;;;;4977727;28;90223;-57
2023/01/31 11:17:27;;;;;;;65.80;49.17;;;16.80;56.30;;;;;;4970471;28;91093;-55
2023/01/31 11:19:56;;;;;;;61.33;48.75;;;16.80;56.10;;;;;;4941700;28;92692;-58
2023/01/31 11:22:30;;;;;;;63.15;48.88;;;16.80;56.10;;;;;;4973329;28;92545;-57
2023/01/31 11:24:58;;;;;;;63.92;48.80;;;16.80;56.10;;;;;;4973228;28;94352;-52
2023/01/31 11:27:35;;;;;;;62.05;48.47;;;16.80;56.10;;;;;;4974376;28;91669;-55
2023/01/31 11:30:03;;;;;;;65.45;48.83;;;16.80;56.30;;;;;;4977070;28;92852;-55
2023/01/31 11:32:34;;;;;;;64.45;49.08;;;16.80;56.30;;;;;;4969514;28;90978;-55
2023/01/31 11:35:06;;;;;;;63.50;48.75;;;16.80;56.30;;;;;;4972472;28;90589;-57
2023/01/31 11:37:33;;;;;;;65.93;48.75;;;16.80;56.10;;;;;;4962836;28;91249;-56
2023/01/31 11:40:14;;;;;;;63.08;49.00;;;16.80;56.00;;;;;;4976804;28;93236;-56
2023/01/31 11:42:55;;;;;;;62.20;48.40;;;16.70;56.40;;;;;;4969632;28;90319;-49
2023/01/31 11:45:26;;;;;;;63.58;48.50;;;16.80;56.30;;;;;;4975859;28;93099;-50
2023/01/31 11:47:54;;;;;;;64.80;48.78;;;16.80;56.00;;;;;;4968758;28;90923;-52
2023/01/31 11:50:36;;;;;;;61.72;48.33;;;16.70;56.10;;;;;;4984234;28;90217;-55
2023/01/31 11:53:32;;;;;;;64.13;49.40;;;16.70;56.40;;;;;;4975470;28;91124;-55
2023/01/31 11:56:10;;;;;;;62.67;48.50;;;16.70;56.30;;;;;;4975232;28;91613;-57
2023/01/31 11:58:39;;;;;;;61.33;48.50;;;16.70;56.50;;;;;;4973727;28;95687;-56
2023/01/31 12:01:11;;;;;;;63.85;48.60;;;16.60;56.20;;;;;;4971592;28;96058;-50
2023/01/31 12:03:37;;;;;;;63.03;48.47;;;16.60;56.40;;;;;;4971760;28;91777;-56
2023/01/31 12:06:08;;;;;;;63.97;48.72;;;16.70;56.50;;;;;;4968534;28;91255;-53
2023/01/31 12:08:39;;;;;;;63.78;48.85;;;16.60;56.40;;;;;;4970252;28;94696;-57
2023/01/31 12:11:20;;;;;;;64.40;48.38;;;16.60;56.50;;;;;;4975816;28;96226;-57
2023/01/31 12:13:59;;;;;;;62.13;48.63;;;16.70;56.70;;;;;;4976015;28;91072;-56
2023/01/31 12:16:27;;;;;;;65.30;48.70;;;16.60;56.50;;;;;;4978064;28;91239;-55
2023/01/31 12:19:04;;;;;;;63.35;48.72;;;16.60;56.40;;;;;;4967837;28;91247;-57
2023/01/31 12:21:29;;;;;;;63.03;48.65;;;16.60;56.50;;;;;;4975785;28;90142;-56
2023/01/31 12:24:37;;;;;;;64.07;48.53;;;16.60;56.60;;;;;;4973165;27;93636;-56
2023/01/31 12:27:14;;;;;;;63.05;48.10;;;16.50;56.70;;;;;;4944383;28;94377;-54
2023/01/31 12:29:58;;;;;;;62.70;48.28;;;16.60;56.60;;;;;;4968399;28;90352;-55
2023/01/31 12:32:42;;;;;;;63.28;48.65;;;16.60;56.60;;;;;;4968862;28;89524;-57
2023/01/31 12:35:26;;;;;;;62.92;48.00;;;16.60;56.90;;;;;;4973844;28;95698;-57
2023/01/31 12:38:13;;;;;;;63.38;48.15;;;16.60;56.50;;;;;;4978113;28;91296;-49
2023/01/31 12:40:52;;;;;;;63.40;48.50;;;16.60;56.70;;;;;;4967290;28;95437;-55
2023/01/31 12:43:36;;;;;;;64.47;48.75;;;16.50;56.90;;;;;;4977562;28;92492;-56
2023/01/31 12:46:08;;;;;;;64.15;48.55;;;16.50;57.60;;;;;;4989296;28;96485;-55
2023/01/31 12:49:02;;;;;;;62.58;48.35;;;16.50;56.90;;;;;;4980951;28;91362;-51
2023/01/31 12:52:06;;;;;;;63.97;48.63;;;16.50;57.20;;;;;;4960991;28;91300;-57
2023/01/31 12:54:37;;;;;;;66.07;48.45;;;16.40;57.00;;;;;;4915436;28;90248;-56